NCAR-RAP Real-Time Weather Data

Output produced by METARs form (23 February 2020  02:30 UTC)
found at http://weather.rap.ucar.edu/surface/
 
KIAH 230153Z 16009KT 10SM BKN250 12/04 A3027 RMK AO2 SLP251 T01220039
KIAH 230053Z 15014KT 10SM BKN250 13/04 A3027 RMK AO2 SLP251 T01280044
KIAH 222353Z 15013KT 10SM BKN250 14/04 A3027 RMK AO2 SLP251 T01440044 10178 20139 56016
KIAH 222253Z 13009KT 10SM BKN250 16/04 A3028 RMK AO2 SLP255 T01560044
KIAH 222153Z VRB06KT 10SM FEW075 BKN250 17/03 A3029 RMK AO2 SLP257 T01670028
KIAH 222053Z VRB04KT 10SM FEW070 BKN250 17/01 A3032 RMK AO2 SLP266 T01720011 56033
KIAH 221953Z 10004KT 10SM FEW070 SCT250 17/01 A3034 RMK AO2 SLP273 T01670011
KIAH 221853Z VRB05KT 10SM FEW070 SCT250 16/01 A3038 RMK AO2 SLP288 T01560006
KIAH 221753Z VRB04KT 10SM FEW070 SCT250 14/01 A3041 RMK AO2 SLP300 T01390006 10144 20028 58011
KIAH 221653Z 15005KT 10SM FEW080 SCT160 SCT250 13/00 A3046 RMK AO2 SLP314 T01280000
KIAH 221553Z 14005KT 10SM FEW100 SCT160 BKN250 12/M01 A3046 RMK AO2 SLP317 T01171006
KIAH 221453Z 11007KT 10SM FEW100 FEW160 SCT250 08/01 A3045 RMK AO2 SLP311 T00830011 58001
KIAH 221353Z 08004KT 10SM FEW160 FEW250 05/01 A3046 RMK AO2 SLP314 T00500011
KIAH 221253Z 00000KT 10SM FEW150 SCT250 03/M01 A3045 RMK AO2 SLP310 T00281006
KIAH 221153Z 00000KT 10SM FEW250 03/M01 A3045 RMK AO2 SLP312 T00331006 10056 20028 55006
KIAH 221053Z 00000KT 10SM FEW150 SCT250 03/01 A3044 RMK AO2 SLP310 T00330006
KIAH 220953Z 00000KT 10SM FEW150 FEW250 03/00 A3046 RMK AO2 SLP314 T00330000
KIAH 220853Z 00000KT 10SM FEW250 04/01 A3047 RMK AO2 SLP318 T00390011 56010
KIAH 220753Z 35003KT 10SM FEW250 04/01 A3049 RMK AO2 SLP325 T00390006
KIAH 220653Z 00000KT 10SM FEW250 05/01 A3048 RMK AO2 SLP321 T00500006
KIAH 220553Z 00000KT 10SM FEW250 05/01 A3050 RMK AO2 SLP328 T00500011 10117 20039 401390039 58006
KIAH 220453Z 10007KT 10SM FEW250 06/00 A3050 RMK AO2 SLP328 T00610000
KIAH 220353Z 06006KT 10SM FEW250 07/00 A3052 RMK AO2 SLP336 T00670000
KIAH 220253Z 03005KT 10SM FEW250 08/M01 A3052 RMK AO2 SLP334 T00831006 53006
KIAH 220153Z 03004KT 10SM FEW250 10/M01 A3051 RMK AO2 SLP332 T01001006
KIAH 220053Z 04007KT 10SM FEW250 10/M01 A3050 RMK AO2 SLP327 T01001011
KIAH 212353Z 04010KT 10SM FEW250 12/M02 A3050 RMK AO2 SLP328 T01171017 10139 20117 56009
KIAH 212253Z 03010KT 10SM FEW250 13/M01 A3051 RMK AO2 SLP332 T01331011
KIAH 212153Z 02008KT 10SM SCT250 14/M01 A3051 RMK AO2 SLP333 T01391011
KIAH 212053Z 04009KT 10SM SCT250 13/M01 A3053 RMK AO2 SLP338 T01331011 56041
KIAH 211953Z 01013G21KT 10SM SCT250 13/00 A3056 RMK AO2 SLP348 T01330000
KIAH 211853Z 02012G18KT 10SM FEW250 13/M01 A3059 RMK AO2 SLP361 T01281006
KIAH 211753Z 01008G18KT 10SM FEW250 12/M01 A3065 RMK AO2 SLP379 T01171006 10117 20039 58003
KIAH 211653Z 02014KT 10SM FEW026 FEW250 11/01 A3066 RMK AO2 SLP384 T01060006
KIAH 211553Z 03009KT 10SM SCT024 08/01 A3068 RMK AO2 SLP389 T00830011
KIAH 211453Z 02012G19KT 10SM FEW020 07/01 A3066 RMK AO2 SLP383 T00670011 51019
KIAH 211353Z 01010KT 10SM CLR 05/02 A3064 RMK AO2 SLP377 T00500017
KIAH 211253Z 36008KT 10SM CLR 04/01 A3062 RMK AO2 SLP370 T00390011
KIAH 211153Z 36008KT 10SM CLR 04/01 A3060 RMK AO2 SLP364 70050 T00440011 10072 20044 53011
KIAH 211053Z 36009KT 10SM CLR 05/01 A3058 RMK AO2 SLP356 T00500011
KIAH 210953Z 36006KT 10SM CLR 06/01 A3057 RMK AO2 SLP352 T00560006
KIAH 210853Z 36010KT 340V040 10SM CLR 06/01 A3057 RMK AO2 SLP352 T00610011 50004
KIAH 210753Z 01012KT 10SM CLR 06/02 A3057 RMK AO2 SLP353 T00610017
KIAH 210653Z 01012KT 10SM FEW030 07/02 A3057 RMK AO2 SLP353 T00670017
KIAH 210553Z 01016G22KT 10SM FEW030 FEW120 07/02 A3056 RMK AO2 SLP348 60000 T00720017 10100 20072 401060072 51015
KIAH 210453Z 01015KT 10SM SCT034 SCT120 08/02 A3055 RMK AO2 SLP346 T00780017
KIAH 210353Z 02018G23KT 10SM BKN032 BKN120 08/02 A3054 RMK AO2 PK WND 01034/0256 SLP342 T00780017
KIAH 210253Z 02020G26KT 10SM BKN030 OVC110 09/02 A3051 RMK AO2 PK WND 02030/0237 RAE10 SLP334 P0000 60000 T00890022 51037